Time;durP1;ratioP1;P1;durP2;ratioP2;P2;SDS_P1;SDS_P2;PMS_P1;PMS_P2;Temp;Humidity;BMP_temperature;BMP_pressure;BME280_temperature;BME280_humidity;BME280_pressure;Samples;Min_cycle;Max_cycle;Signal;HPM_P1;HPM_P2
2022/04/14 00:00:30;;;;;;;19.80;10.03;;;;;8.70;96279.00;;;;8295548;28;20222;-66
2022/04/14 00:04:35;;;;;;;13.27;9.03;;;;;8.70;96280.00;;;;8295056;28;20253;-66
2022/04/14 00:08:39;;;;;;;14.73;9.13;;;;;8.70;96275.00;;;;8290048;28;20659;-66
2022/04/14 00:13:13;;;;;;;13.40;9.10;;;;;8.60;96277.00;;;;8301958;28;20250;-66
2022/04/14 00:17:16;;;;;;;15.50;9.30;;;;;8.50;96275.00;;;;8301427;28;20217;-66
2022/04/14 00:21:20;;;;;;;14.73;8.80;;;;;8.50;96274.00;;;;8301172;28;20221;-66
2022/04/14 00:25:56;;;;;;;16.33;9.03;;;;;8.30;96273.00;;;;8300934;28;20228;-66
2022/04/14 00:30:01;;;;;;;13.23;8.10;;;;;8.20;96264.00;;;;8301123;28;20611;-67
2022/04/14 00:34:04;;;;;;;18.57;10.00;;;;;8.10;96270.00;;;;8300270;28;20559;-67
2022/04/14 00:38:42;;;;;;;14.60;9.13;;;;;8.00;96257.00;;;;8300558;28;20312;-67
2022/04/14 00:42:45;;;;;;;15.07;9.60;;;;;8.10;96262.00;;;;8300688;28;20292;-66
2022/04/14 00:46:50;;;;;;;16.40;9.07;;;;;8.10;96266.00;;;;8300218;28;20562;-66
2022/04/14 00:50:53;;;;;;;14.63;9.67;;;;;8.10;96272.00;;;;8299715;28;20226;-66
2022/04/14 00:55:29;;;;;;;19.57;9.43;;;;;8.00;96273.00;;;;8300454;28;20258;-66
2022/04/14 00:59:34;;;;;;;14.83;9.03;;;;;7.90;96274.00;;;;8299672;28;20534;-66
2022/04/14 01:04:10;;;;;;;13.73;9.00;;;;;7.80;96267.00;;;;8299526;28;20255;-66
2022/04/14 01:08:17;;;;;;;16.57;10.07;;;;;7.80;96265.00;;;;8299330;28;20248;-67
2022/04/14 01:12:21;;;;;;;16.83;9.87;;;;;7.70;96267.00;;;;8300028;28;20226;-67
2022/04/14 01:16:24;;;;;;;17.63;9.80;;;;;7.60;96259.00;;;;8299331;28;20734;-67
2022/04/14 01:20:29;;;;;;;13.53;8.93;;;;;7.70;96260.00;;;;8297937;28;20230;-67
2022/04/14 01:24:34;;;;;;;14.37;8.43;;;;;7.90;96264.00;;;;8299617;28;20302;-67
2022/04/14 01:28:37;;;;;;;17.37;8.60;;;;;7.90;96279.00;;;;8298108;28;20232;-67
2022/04/14 01:32:40;;;;;;;12.70;8.53;;;;;7.80;96279.00;;;;8299140;28;20241;-67
2022/04/14 01:36:44;;;;;;;13.53;8.17;;;;;7.70;96284.00;;;;8299067;28;20225;-67
2022/04/14 01:40:49;;;;;;;15.70;9.30;;;;;7.60;96285.00;;;;8298367;28;20249;-67
2022/04/14 01:45:23;;;;;;;12.30;9.10;;;;;7.50;96289.00;;;;8299016;28;20217;-66
2022/04/14 01:49:26;;;;;;;17.57;9.53;;;;;7.50;96286.00;;;;8298811;28;20229;-66
2022/04/14 01:53:30;;;;;;;18.90;9.10;;;;;7.40;96288.00;;;;8298499;28;20224;-66
2022/04/14 01:57:34;;;;;;;14.77;9.17;;;;;7.40;96282.00;;;;8298133;28;20224;-66
2022/04/14 02:02:08;;;;;;;18.97;9.17;;;;;7.20;96273.00;;;;8286933;28;20224;-66
2022/04/14 02:06:12;;;;;;;13.40;9.60;;;;;7.10;96281.00;;;;8297854;28;20252;-66
2022/04/14 02:10:15;;;;;;;16.77;10.10;;;;;7.10;96279.00;;;;8297629;28;20600;-66
2022/04/14 02:14:54;;;;;;;16.03;9.60;;;;;7.00;96270.00;;;;8298200;28;20248;-66
2022/04/14 02:18:58;;;;;;;25.50;11.23;;;;;6.90;96285.00;;;;8292006;28;20253;-66
2022/04/14 02:23:01;;;;;;;17.50;10.20;;;;;6.90;96280.00;;;;8296876;28;20307;-67
2022/04/14 02:27:35;;;;;;;15.70;9.57;;;;;6.90;96290.00;;;;8298094;28;20658;-67
2022/04/14 02:31:40;;;;;;;19.83;9.60;;;;;6.80;96287.00;;;;8296486;28;20602;-67
2022/04/14 02:35:44;;;;;;;19.80;10.13;;;;;6.70;96295.00;;;;8296457;28;20312;-67
2022/04/14 02:40:22;;;;;;;13.93;9.40;;;;;6.50;96289.00;;;;8297755;28;20309;-67
2022/04/14 02:44:25;;;;;;;15.70;10.73;;;;;6.50;96298.00;;;;8296247;28;20229;-68
2022/04/14 02:48:29;;;;;;;18.80;10.47;;;;;6.50;96291.00;;;;8296439;28;20313;-67
2022/04/14 02:53:03;;;;;;;20.93;10.87;;;;;6.50;96294.00;;;;8296852;28;20223;-67
2022/04/14 02:57:08;;;;;;;21.90;10.77;;;;;6.50;96291.00;;;;8296800;28;20227;-66
2022/04/14 03:01:11;;;;;;;16.73;11.13;;;;;6.60;96294.00;;;;8336411;23;20331;-70
2022/04/14 03:05:15;;;;;;;20.43;11.47;;;;;6.70;96298.00;;;;8259938;28;20220;-66
2022/04/14 03:09:19;;;;;;;19.43;10.67;;;;;6.70;96300.00;;;;8272956;28;20324;-68
2022/04/14 03:13:22;;;;;;;19.93;10.20;;;;;6.70;96295.00;;;;8276186;28;20236;-68
2022/04/14 03:17:25;;;;;;;20.33;11.13;;;;;6.70;96292.00;;;;8282584;28;20729;-75
2022/04/14 03:21:30;;;;;;;15.50;10.40;;;;;6.70;96296.00;;;;8283178;28;20778;-68
2022/04/14 03:25:33;;;;;;;19.97;10.87;;;;;6.60;96298.00;;;;8282545;28;20245;-71
2022/04/14 03:29:36;;;;;;;26.93;12.13;;;;;6.50;96291.00;;;;8283116;28;20344;-69
2022/04/14 03:33:39;;;;;;;22.27;12.00;;;;;6.50;96288.00;;;;8282456;28;20764;-69
2022/04/14 03:37:44;;;;;;;19.80;10.70;;;;;6.60;96285.00;;;;8281166;28;20244;-68
2022/04/14 03:41:47;;;;;;;18.40;11.20;;;;;6.60;96289.00;;;;8280057;28;20737;-69
2022/04/14 03:45:51;;;;;;;19.57;10.63;;;;;6.60;96298.00;;;;8290881;28;20322;-69
2022/04/14 03:49:54;;;;;;;24.27;11.33;;;;;6.70;96298.00;;;;8282344;28;20266;-69
2022/04/14 03:53:58;;;;;;;21.50;11.00;;;;;6.70;96308.00;;;;8289087;28;20234;-68
2022/04/14 03:58:01;;;;;;;16.73;11.17;;;;;6.70;96307.00;;;;8289062;28;20339;-69
2022/04/14 04:02:05;;;;;;;16.43;11.00;;;;;6.70;96302.00;;;;8288575;28;20241;-73
2022/04/14 04:06:08;;;;;;;22.77;11.90;;;;;6.60;96299.00;;;;8287866;28;20241;-69
2022/04/14 04:10:13;;;;;;;19.60;10.73;;;;;6.50;96308.00;;;;8284004;28;20227;-67
2022/04/14 04:14:16;;;;;;;20.53;11.10;;;;;6.60;96304.00;;;;8272037;28;20226;-69
2022/04/14 04:18:20;;;;;;;22.67;11.27;;;;;6.50;96306.00;;;;8282200;28;20355;-69
2022/04/14 04:22:23;;;;;;;19.37;11.17;;;;;6.50;96311.00;;;;8284160;28;20322;-68
2022/04/14 04:26:28;;;;;;;20.80;11.63;;;;;6.40;96321.00;;;;8286633;28;20231;-67
2022/04/14 04:30:31;;;;;;;17.67;10.73;;;;;6.50;96321.00;;;;8285105;28;20228;-69
2022/04/14 04:34:34;;;;;;;20.47;11.40;;;;;6.50;96326.00;;;;8285292;28;20306;-66
2022/04/14 04:38:38;;;;;;;22.77;12.07;;;;;6.60;96324.00;;;;8274894;28;20222;-69
2022/04/14 04:42:42;;;;;;;24.00;12.07;;;;;6.70;96343.00;;;;8281819;28;20239;-67
2022/04/14 04:46:45;;;;;;;26.03;13.13;;;;;6.80;96343.00;;;;8276005;28;20355;-68
2022/04/14 04:50:49;;;;;;;21.97;11.00;;;;;6.90;96339.00;;;;8286158;28;20236;-70
2022/04/14 04:54:52;;;;;;;22.50;12.40;;;;;7.00;96343.00;;;;8277812;28;20231;-70
2022/04/14 04:58:57;;;;;;;26.90;13.50;;;;;7.10;96345.00;;;;8289082;28;20238;-70
2022/04/14 05:03:00;;;;;;;20.83;13.03;;;;;7.20;96355.00;;;;8272436;28;20259;-70
2022/04/14 05:07:04;;;;;;;19.03;12.17;;;;;7.40;96348.00;;;;8283255;28;20345;-70
2022/04/14 05:11:07;;;;;;;17.17;11.50;;;;;7.50;96351.00;;;;8281566;28;22040;-70
2022/04/14 05:15:12;;;;;;;18.43;11.27;;;;;7.60;96356.00;;;;8273933;28;20391;-70
2022/04/14 05:19:15;;;;;;;21.47;11.20;;;;;7.70;96354.00;;;;8277091;28;20743;-72
2022/04/14 05:23:18;;;;;;;22.90;10.97;;;;;7.90;96363.00;;;;8279787;28;20694;-68
2022/04/14 05:27:22;;;;;;;17.67;10.13;;;;;8.00;96367.00;;;;8283161;28;20238;-69
2022/04/14 05:31:28;;;;;;;15.23;9.87;;;;;8.10;96371.00;;;;8285534;28;20670;-71
2022/04/14 05:35:32;;;;;;;13.83;9.73;;;;;8.20;96379.00;;;;8276366;28;20234;-68
2022/04/14 05:39:35;;;;;;;14.63;9.30;;;;;8.30;96376.00;;;;8271298;28;20233;-70
2022/04/14 05:43:38;;;;;;;14.87;8.90;;;;;8.40;96384.00;;;;8279962;28;20227;-69
2022/04/14 05:47:43;;;;;;;12.17;8.93;;;;;8.50;96377.00;;;;8282725;28;20237;-71
2022/04/14 05:51:46;;;;;;;17.20;10.10;;;;;8.60;96364.00;;;;8293205;28;20237;-68
2022/04/14 05:55:49;;;;;;;16.90;10.03;;;;;8.80;96373.00;;;;8274957;28;20318;-68
2022/04/14 05:59:53;;;;;;;21.50;12.03;;;;;9.10;96372.00;;;;8284696;28;20793;-73
2022/04/14 06:03:57;;;;;;;18.27;12.73;;;;;9.30;96369.00;;;;8279384;28;21031;-69
2022/04/14 06:08:01;;;;;;;13.00;9.47;;;;;9.60;96373.00;;;;8285154;28;20313;-71
2022/04/14 06:12:04;;;;;;;15.27;9.43;;;;;9.80;96372.00;;;;8265879;28;20241;-68
2022/04/14 06:16:23;;;;;;;15.73;9.77;;;;;10.20;96384.00;;;;8271848;28;20250;-70
2022/04/14 06:20:28;;;;;;;13.50;9.17;;;;;10.40;96382.00;;;;8259159;28;20241;-68
2022/04/14 06:24:31;;;;;;;15.07;9.47;;;;;10.70;96378.00;;;;8262335;28;20231;-74
2022/04/14 06:28:34;;;;;;;16.33;9.77;;;;;11.00;96385.00;;;;8256721;28;20306;-72
2022/04/14 06:32:37;;;;;;;15.57;10.43;;;;;11.20;96387.00;;;;8261125;28;20234;-70
2022/04/14 06:36:42;;;;;;;17.17;9.80;;;;;11.50;96392.00;;;;8253284;28;20226;-66
2022/04/14 06:40:45;;;;;;;14.67;9.57;;;;;11.90;96393.00;;;;8256266;28;20230;-67
2022/04/14 06:44:48;;;;;;;16.70;9.83;;;;;12.30;96395.00;;;;8256485;28;20226;-71
2022/04/14 06:48:52;;;;;;;15.87;9.20;;;;;12.60;96390.00;;;;8251764;28;20807;-65
2022/04/14 06:52:56;;;;;;;17.80;9.90;;;;;13.00;96393.00;;;;8257004;28;20230;-70
2022/04/14 06:57:00;;;;;;;11.82;8.32;;;;;13.50;96392.00;;;;8257302;28;20223;-66
2022/04/14 07:01:05;;;;;;;11.15;8.10;;;;;13.90;96394.00;;;;8252278;28;20232;-73
2022/04/14 07:05:08;;;;;;;14.27;8.80;;;;;14.40;96392.00;;;;8250562;28;20233;-69
2022/04/14 07:09:13;;;;;;;15.13;8.00;;;;;14.80;96395.00;;;;8253814;28;20247;-68
2022/04/14 07:13:16;;;;;;;10.27;7.80;;;;;15.30;96400.00;;;;8260013;28;20682;-66
2022/04/14 07:17:22;;;;;;;12.02;7.60;;;;;15.70;96402.00;;;;8265867;28;20294;-70
2022/04/14 07:21:26;;;;;;;11.40;7.40;;;;;16.30;96401.00;;;;8265197;28;20814;-75
2022/04/14 07:25:33;;;;;;;12.13;7.15;;;;;16.90;96407.00;;;;8267848;28;20943;-66
2022/04/14 07:29:36;;;;;;;9.07;7.22;;;;;17.70;96405.00;;;;8266809;28;20247;-72
2022/04/14 07:33:40;;;;;;;10.98;7.95;;;;;18.40;96404.00;;;;8267245;28;20991;-70
2022/04/14 07:37:44;;;;;;;10.73;7.10;;;;;19.40;96404.00;;;;8264138;28;20356;-67
2022/04/14 07:41:49;;;;;;;9.93;6.97;;;;;20.60;96404.00;;;;8271921;28;20218;-67
2022/04/14 07:45:52;;;;;;;11.25;6.50;;;;;21.60;96405.00;;;;8269680;28;20304;-69
2022/04/14 07:49:55;;;;;;;8.55;6.40;;;;;22.50;96411.00;;;;8271706;28;20248;-72
2022/04/14 07:53:59;;;;;;;8.93;6.82;;;;;23.20;96423.00;;;;8268969;28;20229;-74
2022/04/14 07:58:07;;;;;;;8.07;6.70;;;;;23.90;96408.00;;;;8275016;28;20864;-66
2022/04/14 08:02:10;;;;;;;13.00;6.80;;;;;24.30;96422.00;;;;8259054;28;20706;-70
2022/04/14 08:06:14;;;;;;;7.90;6.13;;;;;24.70;96416.00;;;;8266239;28;20230;-67
2022/04/14 08:10:17;;;;;;;9.25;6.68;;;;;24.90;96422.00;;;;8261103;28;20786;-72
2022/04/14 08:14:22;;;;;;;10.75;6.20;;;;;25.20;96430.00;;;;8237584;28;20278;-67
2022/04/14 08:18:25;;;;;;;8.73;6.18;;;;;25.60;96425.00;;;;8267203;28;20240;-66
2022/04/14 08:22:28;;;;;;;11.20;6.50;;;;;26.00;96427.00;;;;8268692;28;20236;-69
2022/04/14 08:26:31;;;;;;;9.40;6.85;;;;;26.40;96428.00;;;;8247671;28;20234;-66
2022/04/14 08:30:37;;;;;;;10.18;5.93;;;;;25.70;96433.00;;;;8266297;28;20230;-71
2022/04/14 08:34:44;;;;;;;11.25;6.03;;;;;25.40;96431.00;;;;8269569;28;20236;-70
2022/04/14 08:38:50;;;;;;;8.50;6.35;;;;;25.10;96433.00;;;;8266031;28;20705;-69
2022/04/14 08:42:57;;;;;;;10.32;6.00;;;;;24.90;96430.00;;;;8264254;28;20886;-72
2022/04/14 08:47:03;;;;;;;11.70;5.90;;;;;24.90;96430.00;;;;8272580;28;20222;-70
2022/04/14 08:51:07;;;;;;;7.47;5.57;;;;;25.00;96435.00;;;;8275727;28;20237;-69
2022/04/14 08:55:14;;;;;;;10.13;5.70;;;;;24.80;96435.00;;;;8272944;28;20241;-71
2022/04/14 08:59:19;;;;;;;9.95;5.70;;;;;24.60;96437.00;;;;8275671;28;20314;-69
2022/04/14 09:03:27;;;;;;;7.53;5.53;;;;;24.70;96445.00;;;;8274870;28;20350;-69
2022/04/14 09:13:02;;;;;;;7.10;5.75;;;;;25.10;96451.00;;;;8299926;28;20650;-64
2022/04/14 09:17:39;;;;;;;10.68;5.60;;;;;25.00;96450.00;;;;8295354;28;20341;-64
2022/04/14 09:26:13;;;;;;;7.85;5.90;;;;;24.20;96443.00;;;;8424997;27;20634;-63
2022/04/14 09:31:02;;;;;;;8.25;5.65;;;;;24.60;96443.00;;;;8423298;27;20226;-63
2022/04/14 09:35:26;;;;;;;9.20;6.00;;;;;25.10;96439.00;;;;8381883;28;20262;-64
2022/04/14 09:40:02;;;;;;;7.10;5.72;;;;;25.50;96447.00;;;;8421187;28;20685;-64
2022/04/14 09:44:37;;;;;;;8.95;5.28;;;;;26.10;96448.00;;;;8422563;28;20223;-64
2022/04/14 09:49:11;;;;;;;12.52;6.20;;;;;26.10;96455.00;;;;8389065;28;20216;-64
2022/04/14 09:53:45;;;;;;;7.45;5.30;;;;;26.00;96461.00;;;;8389139;28;20220;-65
2022/04/14 09:58:22;;;;;;;7.25;5.32;;;;;25.50;96464.00;;;;8389773;28;20299;-65
2022/04/14 10:02:52;;;;;;;7.95;6.10;;;;;25.10;96470.00;;;;8391951;28;20307;-65
2022/04/14 10:07:31;;;;;;;11.77;5.68;;;;;25.40;96461.00;;;;8389226;28;20223;-64
2022/04/14 10:12:11;;;;;;;9.10;5.47;;;;;25.90;96452.00;;;;8389283;28;20618;-65
2022/04/14 10:16:48;;;;;;;7.45;6.60;;;;;26.50;96462.00;;;;8388052;28;20295;-64
2022/04/14 10:21:25;;;;;;;10.15;6.75;;;;;26.40;96459.00;;;;8388380;28;20219;-64
2022/04/14 10:31:02;;;;;;;8.65;6.20;;;;;27.90;96459.00;;;;8388357;28;20676;-65
2022/04/14 10:35:36;;;;;;;9.82;6.72;;;;;28.00;96459.00;;;;8346257;28;20240;-65
2022/04/14 10:40:13;;;;;;;14.55;6.63;;;;;28.20;96458.00;;;;8332589;28;20213;-65
2022/04/14 10:44:51;;;;;;;8.55;6.10;;;;;27.40;96456.00;;;;8331721;28;20301;-65
2022/04/14 10:49:10;;;;;;;15.90;8.00;;;;;26.60;96460.00;;;;8331876;28;20239;-64
2022/04/14 10:53:32;;;;;;;11.10;5.95;;;;;26.10;96470.00;;;;8331955;28;20607;-69
2022/04/14 10:58:09;;;;;;;11.57;5.80;;;;;26.40;96467.00;;;;8332870;28;20263;-68
2022/04/14 11:02:49;;;;;;;7.68;5.65;;;;;26.90;96457.00;;;;8332078;28;20308;-68
2022/04/14 11:07:16;;;;;;;7.40;5.15;;;;;27.30;96465.00;;;;8331231;28;20209;-68
2022/04/14 11:11:53;;;;;;;9.75;5.47;;;;;26.90;96462.00;;;;8331480;28;20252;-68
2022/04/14 11:16:40;;;;;;;10.43;5.25;;;;;26.50;96472.00;;;;8331863;28;20686;-68
2022/04/14 11:21:08;;;;;;;8.07;5.97;;;;;26.20;96464.00;;;;8331415;28;20680;-66
2022/04/14 11:30:43;;;;;;;9.05;5.97;;;;;26.60;96459.00;;;;8331501;28;20253;-66
2022/04/14 11:35:19;;;;;;;10.15;5.78;;;;;26.40;96463.00;;;;8330783;28;20224;-68
2022/04/14 11:40:00;;;;;;;7.95;5.03;;;;;26.10;96461.00;;;;8330577;28;20296;-68
2022/04/14 11:44:38;;;;;;;6.35;4.57;;;;;26.60;96461.00;;;;8331521;28;20255;-67
2022/04/14 11:49:18;;;;;;;8.98;5.88;;;;;27.40;96465.00;;;;8329356;28;20649;-66
2022/04/14 11:53:53;;;;;;;8.63;5.78;;;;;26.90;96462.00;;;;8330249;28;20225;-67
2022/04/14 11:58:27;;;;;;;7.78;5.65;;;;;26.20;96458.00;;;;8330673;28;20243;-67
2022/04/14 12:03:09;;;;;;;10.60;6.50;;;;;25.80;96451.00;;;;8327530;28;20249;-67
2022/04/14 12:07:13;;;;;;;9.35;5.80;;;;;25.90;96451.00;;;;8329334;28;20213;-67
2022/04/14 12:11:17;;;;;;;11.90;6.10;;;;;26.20;96448.00;;;;8329578;28;20225;-67
2022/04/14 12:16:09;;;;;;;7.35;5.15;;;;;26.30;96445.00;;;;8329621;28;20252;-66
2022/04/14 12:20:13;;;;;;;9.35;5.70;;;;;26.10;96444.00;;;;8253475;28;20592;-70
2022/04/14 12:29:49;;;;;;;7.80;5.60;;;;;26.10;96445.00;;;;8329960;28;20217;-69
2022/04/14 12:33:57;;;;;;;8.05;4.60;;;;;25.80;96435.00;;;;8328923;28;20300;-72
2022/04/14 12:38:42;;;;;;;8.93;5.38;;;;;25.80;96434.00;;;;8328795;28;20700;-70
2022/04/14 12:42:47;;;;;;;9.95;5.50;;;;;26.00;96432.00;;;;8328380;28;20217;-70
2022/04/14 12:47:38;;;;;;;6.85;4.90;;;;;26.20;96445.00;;;;8329100;28;20554;-70
2022/04/14 12:51:42;;;;;;;5.20;4.53;;;;;25.80;96434.00;;;;8293918;28;20208;-70
2022/04/14 12:55:47;;;;;;;7.25;4.43;;;;;25.60;96426.00;;;;8328772;28;20218;-71
2022/04/14 13:00:10;;;;;;;8.70;4.63;;;;;25.70;96428.00;;;;8328985;28;20221;-71
2022/04/14 13:04:40;;;;;;;7.25;4.93;;;;;25.90;96425.00;;;;8328474;28;20558;-72
2022/04/14 13:08:43;;;;;;;7.15;4.50;;;;;26.20;96419.00;;;;8328669;28;20228;-72
2022/04/14 13:13:24;;;;;;;7.60;4.15;;;;;26.40;96416.00;;;;8322390;28;20236;-72
2022/04/14 13:18:02;;;;;;;7.13;4.40;;;;;26.40;96421.00;;;;8327768;28;20546;-72
2022/04/14 13:22:07;;;;;;;6.07;3.70;;;;;26.40;96414.00;;;;8324726;28;20213;-72
2022/04/14 13:26:41;;;;;;;7.88;3.42;;;;;26.60;96420.00;;;;8325892;28;20232;-70
2022/04/14 13:30:44;;;;;;;6.72;4.18;;;;;26.50;96417.00;;;;8327310;28;20315;-71
2022/04/14 13:34:48;;;;;;;8.50;4.53;;;;;26.40;96412.00;;;;8327697;28;20228;-70
2022/04/14 13:38:52;;;;;;;8.40;4.63;;;;;26.30;96416.00;;;;8328557;28;20500;-71
2022/04/14 13:43:28;;;;;;;10.73;3.92;;;;;26.70;96420.00;;;;8327935;28;20221;-72
2022/04/14 13:47:33;;;;;;;6.45;3.70;;;;;27.40;96421.00;;;;8328237;28;20639;-70
2022/04/14 13:51:37;;;;;;;16.23;4.78;;;;;27.90;96426.00;;;;8327961;28;20546;-71
2022/04/14 13:56:11;;;;;;;8.25;4.00;;;;;27.50;96418.00;;;;8328282;28;20260;-71
2022/04/14 14:00:49;;;;;;;7.47;4.80;;;;;27.30;96427.00;;;;8324951;28;20249;-71
2022/04/14 14:04:52;;;;;;;6.75;4.20;;;;;27.00;96421.00;;;;8328342;28;20220;-71
2022/04/14 14:09:31;;;;;;;6.78;4.32;;;;;27.10;96414.00;;;;8335905;28;20227;-70
2022/04/14 14:13:34;;;;;;;6.43;3.90;;;;;27.40;96409.00;;;;8366681;28;20304;-70
2022/04/14 14:18:08;;;;;;;5.63;3.90;;;;;27.80;96414.00;;;;8366817;28;20224;-70
2022/04/14 14:22:12;;;;;;;5.30;3.95;;;;;28.10;96421.00;;;;8400300;28;20251;-71
2022/04/14 14:26:47;;;;;;;4.95;4.15;;;;;27.40;96408.00;;;;8399612;28;20678;-71
2022/04/14 14:30:50;;;;;;;8.13;4.80;;;;;27.20;96409.00;;;;8400101;28;20291;-71
2022/04/14 14:34:54;;;;;;;7.22;4.00;;;;;27.20;96413.00;;;;8399977;28;20255;-71
2022/04/14 14:39:31;;;;;;;6.97;4.15;;;;;27.60;96418.00;;;;8399417;28;20326;-71
2022/04/14 14:43:37;;;;;;;6.35;3.90;;;;;27.30;96416.00;;;;8399531;28;20226;-72
2022/04/14 14:48:11;;;;;;;4.15;3.65;;;;;27.40;96419.00;;;;8399945;28;20228;-72
2022/04/14 14:52:14;;;;;;;5.05;3.78;;;;;28.10;96414.00;;;;8366328;28;20223;-72
2022/04/14 14:56:51;;;;;;;4.53;3.50;;;;;28.60;96411.00;;;;8365753;28;20226;-71
2022/04/14 15:00:56;;;;;;;4.45;3.55;;;;;28.60;96417.00;;;;8397269;28;20218;-70
2022/04/14 15:05:29;;;;;;;5.93;3.53;;;;;28.60;96421.00;;;;8399139;28;20228;-70
2022/04/14 15:09:33;;;;;;;5.00;3.30;;;;;28.80;96416.00;;;;8398241;28;20312;-70
2022/04/14 15:14:08;;;;;;;6.25;3.03;;;;;28.60;96419.00;;;;8398664;28;20307;-70
2022/04/14 15:18:14;;;;;;;4.40;3.30;;;;;28.40;96419.00;;;;8398272;28;20295;-70
2022/04/14 15:22:17;;;;;;;5.38;3.13;;;;;28.20;96412.00;;;;8398310;28;20303;-70
2022/04/14 15:26:44;;;;;;;4.15;3.30;;;;;28.00;96406.00;;;;8397592;28;20241;-69
2022/04/14 15:30:51;;;;;;;4.32;3.15;;;;;27.90;96416.00;;;;8397888;28;20637;-70
2022/04/14 15:35:23;;;;;;;8.52;3.15;;;;;27.90;96424.00;;;;8398081;28;20222;-70
2022/04/14 15:39:26;;;;;;;4.88;3.35;;;;;27.80;96431.00;;;;8397618;28;20211;-70
2022/04/14 15:43:29;;;;;;;5.03;3.13;;;;;27.60;96431.00;;;;8397398;28;20611;-70
2022/04/14 15:47:32;;;;;;;4.43;3.10;;;;;27.50;96434.00;;;;8398007;28;20242;-69
2022/04/14 15:52:11;;;;;;;3.20;2.90;;;;;27.70;96439.00;;;;8397808;28;20250;-69
2022/04/14 15:56:15;;;;;;;3.22;2.83;;;;;27.50;96433.00;;;;8396349;28;20657;-69
2022/04/14 16:00:20;;;;;;;8.80;2.90;;;;;27.20;96435.00;;;;8396983;28;20618;-70
2022/04/14 16:04:23;;;;;;;8.55;3.08;;;;;27.20;96437.00;;;;8396809;28;20227;-70
2022/04/14 16:09:04;;;;;;;4.22;3.08;;;;;27.50;96442.00;;;;8397134;28;20219;-70
2022/04/14 16:13:35;;;;;;;4.35;2.75;;;;;27.60;96438.00;;;;8396223;28;20617;-70
2022/04/14 16:17:38;;;;;;;2.92;2.63;;;;;28.00;96440.00;;;;8363081;28;20281;-68
2022/04/14 16:22:12;;;;;;;5.70;2.70;;;;;28.10;96441.00;;;;8363331;28;20307;-70
2022/04/14 16:26:19;;;;;;;3.83;3.47;;;;;28.10;96442.00;;;;8394467;28;20227;-69
2022/04/14 16:30:24;;;;;;;4.93;3.20;;;;;27.80;96449.00;;;;8395954;28;20243;-69
2022/04/14 16:34:58;;;;;;;6.10;3.30;;;;;27.60;96463.00;;;;8395864;28;20223;-69
2022/04/14 16:39:01;;;;;;;4.22;3.08;;;;;27.80;96458.00;;;;8394245;28;20698;-69
2022/04/14 16:43:37;;;;;;;5.43;2.95;;;;;28.00;96461.00;;;;8393107;28;20227;-69
2022/04/14 16:48:17;;;;;;;6.18;3.28;;;;;28.00;96465.00;;;;8394588;28;20231;-69
2022/04/14 16:52:21;;;;;;;6.03;3.38;;;;;27.50;96468.00;;;;8395279;28;20716;-70
2022/04/14 16:56:24;;;;;;;3.30;3.00;;;;;27.20;96471.00;;;;8395299;28;20314;-69
2022/04/14 17:01:01;;;;;;;5.30;3.22;;;;;26.80;96471.00;;;;8394418;28;20307;-70
2022/04/14 17:05:06;;;;;;;4.65;3.35;;;;;26.10;96476.00;;;;8395132;28;20285;-70
2022/04/14 17:09:09;;;;;;;4.65;3.42;;;;;25.30;96480.00;;;;8394542;28;20239;-69
2022/04/14 17:13:13;;;;;;;6.43;3.65;;;;;24.60;96478.00;;;;8392758;28;20575;-69
2022/04/14 17:17:49;;;;;;;5.93;3.35;;;;;24.00;96485.00;;;;8395090;28;20215;-69
2022/04/14 17:27:04;;;;;;;6.30;3.50;;;;;22.80;96496.00;;;;8393195;28;20227;-70
2022/04/14 17:31:07;;;;;;;4.93;4.20;;;;;22.50;96509.00;;;;8394226;28;20299;-69
2022/04/14 17:35:44;;;;;;;4.80;3.50;;;;;22.20;96511.00;;;;8393426;28;20266;-70
2022/04/14 17:40:22;;;;;;;11.93;3.90;;;;;21.80;96510.00;;;;8393003;28;20224;-69
2022/04/14 17:44:56;;;;;;;8.63;3.67;;;;;21.40;96524.00;;;;8393898;28;20314;-69
2022/04/14 17:49:33;;;;;;;6.88;4.10;;;;;21.10;96516.00;;;;8400377;28;20228;-70
2022/04/14 17:54:10;;;;;;;9.82;4.25;;;;;20.80;96514.00;;;;8399894;28;20251;-68
2022/04/14 17:58:48;;;;;;;9.85;4.55;;;;;20.40;96522.00;;;;8399086;28;20294;-69
2022/04/14 18:02:52;;;;;;;8.45;4.55;;;;;20.10;96530.00;;;;8399513;28;20243;-70
2022/04/14 18:07:28;;;;;;;6.00;4.43;;;;;19.70;96525.00;;;;8399111;28;20617;-68
2022/04/14 18:12:05;;;;;;;9.57;4.00;;;;;19.40;96535.00;;;;8365385;28;20304;-69
2022/04/14 18:16:44;;;;;;;9.45;4.78;;;;;19.00;96539.00;;;;8397217;28;20212;-67
2022/04/14 18:21:18;;;;;;;5.95;4.32;;;;;18.60;96546.00;;;;8398341;28;20219;-68
2022/04/14 18:25:22;;;;;;;8.63;3.95;;;;;18.50;96557.00;;;;8398519;28;20292;-69
2022/04/14 18:29:55;;;;;;;13.88;7.18;;;;;18.50;96556.00;;;;8399160;28;20224;-70
2022/04/14 18:34:00;;;;;;;10.93;5.30;;;;;18.60;96557.00;;;;8365957;28;20247;-69
2022/04/14 18:38:34;;;;;;;8.63;5.03;;;;;18.70;96564.00;;;;8398777;28;20657;-70
2022/04/14 18:43:10;;;;;;;8.05;4.45;;;;;18.60;96582.00;;;;8398221;28;20216;-69
2022/04/14 18:47:48;;;;;;;9.23;4.25;;;;;18.50;96576.00;;;;8399087;28;20224;-71
2022/04/14 18:52:26;;;;;;;8.55;4.97;;;;;18.40;96571.00;;;;8361963;28;20296;-71
2022/04/14 18:57:01;;;;;;;14.60;6.80;;;;;18.30;96577.00;;;;8397180;28;20598;-71
2022/04/14 19:01:35;;;;;;;10.30;5.88;;;;;18.20;96585.00;;;;8398297;28;20247;-71
2022/04/14 19:06:14;;;;;;;5.80;5.05;;;;;18.10;96584.00;;;;8397440;28;20311;-70
2022/04/14 19:10:47;;;;;;;10.82;4.90;;;;;18.00;96590.00;;;;8396370;28;20299;-71
2022/04/14 19:15:25;;;;;;;8.63;5.05;;;;;18.00;96602.00;;;;8398480;28;20643;-71
2022/04/14 19:20:00;;;;;;;8.57;6.30;;;;;17.90;96603.00;;;;8397698;28;20712;-71
2022/04/14 19:24:03;;;;;;;7.00;5.53;;;;;17.90;96610.00;;;;8397222;28;20306;-71
2022/04/14 19:28:40;;;;;;;7.85;5.20;;;;;17.90;96611.00;;;;8397555;28;20310;-71
2022/04/14 19:33:18;;;;;;;10.65;6.93;;;;;17.90;96604.00;;;;8397215;28;20616;-71
2022/04/14 19:37:56;;;;;;;9.95;7.68;;;;;17.90;96607.00;;;;8396630;28;20220;-70
2022/04/14 19:42:27;;;;;;;8.85;6.65;;;;;18.00;96609.00;;;;8396383;28;20239;-71
2022/04/14 19:47:05;;;;;;;10.68;6.47;;;;;18.00;96612.00;;;;8364300;28;20225;-71
2022/04/14 19:51:09;;;;;;;8.68;6.72;;;;;18.10;96613.00;;;;8395644;28;20374;-71
2022/04/14 19:55:43;;;;;;;7.60;6.15;;;;;18.00;96624.00;;;;8396626;28;20220;-70
2022/04/14 20:00:20;;;;;;;10.70;7.13;;;;;18.00;96632.00;;;;8362950;28;20303;-71
2022/04/14 20:04:53;;;;;;;7.40;6.40;;;;;18.00;96644.00;;;;8395643;28;20311;-71
2022/04/14 20:09:32;;;;;;;8.35;6.32;;;;;18.00;96644.00;;;;8393632;28;20311;-70
2022/04/14 20:13:35;;;;;;;8.00;6.50;;;;;18.00;96645.00;;;;8396113;28;20220;-71
2022/04/14 20:17:38;;;;;;;9.30;7.30;;;;;17.90;96651.00;;;;8395552;28;20652;-70
2022/04/14 20:22:15;;;;;;;8.10;6.60;;;;;17.90;96656.00;;;;8393488;28;20568;-70
2022/04/14 20:26:52;;;;;;;8.05;7.28;;;;;17.80;96654.00;;;;8362681;28;20625;-69
2022/04/14 20:31:30;;;;;;;8.93;7.47;;;;;17.80;96661.00;;;;8394370;28;20223;-70
2022/04/14 20:36:05;;;;;;;12.68;8.50;;;;;17.70;96654.00;;;;8394780;28;20224;-70
2022/04/14 20:40:39;;;;;;;10.73;7.85;;;;;17.70;96664.00;;;;8393237;28;20228;-69
2022/04/14 20:44:42;;;;;;;12.35;7.78;;;;;17.60;96666.00;;;;8394635;28;20635;-70
2022/04/14 20:48:46;;;;;;;12.13;7.72;;;;;17.60;96668.00;;;;8394182;28;20239;-70
2022/04/14 20:52:50;;;;;;;11.45;7.13;;;;;17.50;96676.00;;;;8395328;28;20316;-70
2022/04/14 20:56:53;;;;;;;11.52;7.63;;;;;17.50;96671.00;;;;8394816;28;20655;-70
2022/04/14 21:01:31;;;;;;;12.52;7.28;;;;;17.40;96667.00;;;;8394748;28;20299;-70
2022/04/14 21:05:36;;;;;;;12.52;7.65;;;;;17.20;96670.00;;;;8394647;28;20223;-70
2022/04/14 21:10:10;;;;;;;18.17;9.75;;;;;16.80;96690.00;;;;8394462;28;20250;-71
2022/04/14 21:14:13;;;;;;;16.50;10.20;;;;;16.80;96703.00;;;;8394256;28;20219;-70
2022/04/14 21:18:17;;;;;;;14.98;10.32;;;;;16.70;96702.00;;;;8395050;28;20228;-70
2022/04/14 21:22:21;;;;;;;16.08;10.85;;;;;16.60;96706.00;;;;8393899;28;20311;-70
2022/04/14 21:26:24;;;;;;;16.02;11.50;;;;;16.60;96710.00;;;;8393954;28;20319;-68
2022/04/14 21:31:01;;;;;;;17.23;11.73;;;;;16.50;96721.00;;;;8394539;28;20709;-69
2022/04/14 21:35:05;;;;;;;16.67;11.23;;;;;16.50;96725.00;;;;8360830;28;20604;-69
2022/04/14 21:39:41;;;;;;;13.88;10.32;;;;;16.50;96721.00;;;;8360241;28;20303;-69
2022/04/14 21:43:45;;;;;;;16.38;13.43;;;;;16.50;96721.00;;;;8361550;28;20216;-71